Time;durP1;ratioP1;P1;durP2;ratioP2;P2;SDS_P1;SDS_P2;PMS_P1;PMS_P2;Temp;Humidity;BMP_temperature;BMP_pressure;BME280_temperature;BME280_humidity;BME280_pressure;Samples;Min_cycle;Max_cycle;Signal;HPM_P1;HPM_P2
2023/01/08 00:00:48;;;;;;;4.53;3.90;;;;;;;12.34;44.09;99006.56;10300043;28;20229;-37
2023/01/08 00:05:50;;;;;;;4.57;4.13;;;;;;;12.47;44.10;99011.91;10316296;28;20249;-36
2023/01/08 00:10:55;;;;;;;5.30;4.20;;;;;;;12.07;44.40;99075.63;10317343;28;20317;-36
2023/01/08 00:16:05;;;;;;;5.70;5.00;;;;;;;12.98;43.72;98996.66;10323526;28;20242;-36
2023/01/08 00:21:07;;;;;;;4.50;4.03;;;;;;;10.03;46.71;98926.09;10321040;28;20238;-36
2023/01/08 00:26:09;;;;;;;5.83;3.77;;;;;;;11.61;45.52;99034.47;10321964;28;20259;-37
2023/01/08 00:31:12;;;;;;;6.47;3.87;;;;;;;11.93;44.78;99003.25;10321839;28;20320;-36
2023/01/08 00:36:17;;;;;;;4.37;3.90;;;;;;;9.80;47.23;98953.13;10321846;28;20266;-36
2023/01/08 00:41:19;;;;;;;4.00;3.50;;;;;;;10.42;46.87;99011.97;10322044;28;20234;-36
2023/01/08 00:46:21;;;;;;;4.23;3.83;;;;;;;11.41;45.52;99015.75;10316386;28;20726;-36
2023/01/08 00:51:23;;;;;;;4.90;3.90;;;;;;;10.17;47.33;98971.59;10318651;28;20289;-36
2023/01/08 00:56:24;;;;;;;4.33;3.90;;;;;;;10.06;46.83;98968.47;10319494;28;20225;-36
2023/01/08 01:01:26;;;;;;;4.83;3.80;;;;;;;11.88;44.84;98919.13;10316850;28;20248;-36
2023/01/08 01:06:28;;;;;;;4.77;3.40;;;;;;;10.37;46.60;99006.41;10327578;28;20233;-35
2023/01/08 01:11:30;;;;;;;5.60;4.00;;;;;;;11.52;44.94;98977.56;10357760;28;20231;-37
2023/01/08 01:16:32;;;;;;;3.77;3.30;;;;;;;11.50;44.53;98986.88;10358894;28;20233;-36
2023/01/08 01:21:33;;;;;;;3.47;3.17;;;;;;;11.67;45.21;99001.47;10359160;28;20248;-36
2023/01/08 01:26:35;;;;;;;4.73;3.97;;;;;;;12.01;44.35;98986.09;10350309;28;20263;-36
2023/01/08 01:31:37;;;;;;;6.83;4.30;;;;;;;11.64;44.82;99015.28;10355773;28;20240;-36
2023/01/08 01:36:39;;;;;;;6.73;4.00;;;;;;;11.68;45.27;99015.72;10360921;28;20248;-36
2023/01/08 01:41:43;;;;;;;5.93;4.37;;;;;;;12.13;45.14;98978.19;10356340;28;20782;-36
2023/01/08 01:46:46;;;;;;;7.57;4.60;;;;;;;13.74;43.20;98910.53;10359073;28;20237;-37
2023/01/08 01:51:52;;;;;;;5.37;3.67;;;;;;;12.87;44.02;98957.94;10357308;28;20233;-36
2023/01/08 01:56:54;;;;;;;6.30;3.90;;;;;;;12.77;44.97;98930.72;10358018;28;20244;-37
2023/01/08 02:01:57;;;;;;;7.23;4.53;;;;;;;12.60;45.36;98975.28;10357603;28;20229;-36
2023/01/08 02:07:27;;;;;;;6.77;4.47;;;;;;;12.47;45.60;98966.28;10357432;28;20244;-37
2023/01/08 02:12:38;;;;;;;5.60;3.87;;;;;;;13.43;43.30;98869.34;10343567;28;20230;-37
2023/01/08 02:17:57;;;;;;;3.73;3.33;;;;;;;11.45;46.77;98923.19;10359680;28;20262;-36
2023/01/08 02:23:09;;;;;;;5.63;4.20;;;;;;;11.40;47.04;98944.44;10358486;28;20237;-37
2023/01/08 02:28:13;;;;;;;4.77;3.37;;;;;;;10.44;49.22;98897.56;10357600;28;20229;-37
2023/01/08 02:33:15;;;;;;;5.77;4.47;;;;;;;9.73;51.75;98842.75;10355314;28;20735;-36
2023/01/08 02:38:17;;;;;;;4.80;4.00;;;;;;;11.56;48.54;98857.44;10356963;28;20241;-37
2023/01/08 02:43:26;;;;;;;5.40;4.40;;;;;;;10.24;50.24;98889.53;10356980;28;20243;-36
2023/01/08 02:48:40;;;;;;;7.43;5.40;;;;;;;10.00;50.36;98862.34;10355961;28;20239;-37
2023/01/08 02:53:49;;;;;;;7.73;5.77;;;;;;;11.73;48.39;98780.06;10354624;28;20249;-37
2023/01/08 02:58:52;;;;;;;5.57;4.93;;;;;;;10.35;49.75;98862.19;10357290;28;20228;-37
2023/01/08 03:04:03;;;;;;;6.70;5.57;;;;;;;10.86;49.65;98834.78;10355213;28;20332;-37
2023/01/08 03:09:05;;;;;;;6.20;5.03;;;;;;;10.14;49.68;98837.31;10356035;28;20302;-37
2023/01/08 03:14:36;;;;;;;6.53;5.03;;;;;;;11.36;48.13;98788.69;10355129;28;20267;-37
2023/01/08 03:19:46;;;;;;;7.07;5.57;;;;;;;10.56;50.19;98845.09;10329459;28;20754;-36
2023/01/08 03:24:54;;;;;;;5.63;4.93;;;;;;;11.52;48.68;98807.97;10354236;28;20328;-36
2023/01/08 03:29:58;;;;;;;6.93;5.00;;;;;;;11.60;48.31;98805.06;10356821;28;20267;-37
2023/01/08 03:35:02;;;;;;;8.37;5.63;;;;;;;11.45;49.01;98806.16;10353380;28;20233;-36
2023/01/08 03:40:15;;;;;;;7.00;5.40;;;;;;;10.57;49.29;98819.19;10355148;28;20608;-37
2023/01/08 03:45:18;;;;;;;6.50;5.17;;;;;;;10.62;49.93;98843.47;10353839;28;20225;-37
2023/01/08 03:50:24;;;;;;;5.97;4.90;;;;;;;11.19;48.73;98833.06;10362803;28;20244;-37
2023/01/08 03:55:26;;;;;;;6.40;5.27;;;;;;;11.61;48.01;98785.28;10360287;28;20237;-37
2023/01/08 04:00:27;;;;;;;6.30;5.10;;;;;;;11.27;48.90;98832.81;10363288;28;20265;-37
2023/01/08 04:05:29;;;;;;;6.60;4.93;;;;;;;11.22;48.86;98849.53;10364327;28;20233;-36
2023/01/08 04:10:31;;;;;;;7.93;5.70;;;;;;;11.45;49.80;98773.19;10363649;28;20843;-37
2023/01/08 04:15:33;;;;;;;6.80;5.70;;;;;;;11.11;48.91;98841.34;10361998;28;20743;-37
2023/01/08 04:20:35;;;;;;;7.77;6.47;;;;;;;11.55;49.18;98853.91;10361230;28;20241;-37
2023/01/08 04:25:37;;;;;;;7.90;6.13;;;;;;;11.17;50.33;98859.22;10362172;28;20237;-36
2023/01/08 04:30:39;;;;;;;13.43;6.70;;;;;;;10.91;49.83;98841.38;10360967;28;20251;-37
2023/01/08 04:35:41;;;;;;;12.90;6.40;;;;;;;11.98;49.06;98775.56;10361887;28;20355;-37
2023/01/08 04:40:42;;;;;;;6.63;5.83;;;;;;;10.42;51.57;98848.81;10362781;28;20276;-36
2023/01/08 04:45:44;;;;;;;7.73;5.70;;;;;;;10.87;50.16;98835.63;10358749;28;20240;-36
2023/01/08 04:50:46;;;;;;;7.10;5.03;;;;;;;9.61;54.06;98766.91;10362237;28;20264;-38
2023/01/08 04:55:47;;;;;;;5.03;4.43;;;;;;;10.48;53.31;98810.56;10359445;28;20241;-36
2023/01/08 05:00:49;;;;;;;6.13;5.13;;;;;;;9.80;53.53;98866.81;10361866;28;20328;-35
2023/01/08 05:05:51;;;;;;;5.13;4.23;;;;;;;9.88;54.03;98843.41;10359710;28;20255;-35
2023/01/08 05:10:53;;;;;;;3.73;3.40;;;;;;;7.89;58.36;98646.72;10360523;28;20236;-35
2023/01/08 05:15:59;;;;;;;3.93;3.50;;;;;;;9.70;55.35;98816.44;10359767;28;20249;-36
2023/01/08 05:21:02;;;;;;;6.30;3.80;;;;;;;9.89;55.85;98785.47;10359790;28;20237;-36
2023/01/08 05:26:06;;;;;;;3.93;3.53;;;;;;;9.36;55.70;98813.66;10359768;28;20236;-36
2023/01/08 05:31:08;;;;;;;7.67;4.27;;;;;;;9.66;55.87;98785.81;10356882;28;20248;-34
2023/01/08 05:36:11;;;;;;;3.90;2.90;;;;;;;8.37;59.33;98715.28;10357893;28;20233;-35
2023/01/08 05:41:13;;;;;;;4.10;3.53;;;;;;;8.59;57.85;98762.19;10359589;28;20320;-36
2023/01/08 05:46:15;;;;;;;3.20;2.90;;;;;;;7.87;57.75;98691.38;10358339;28;20251;-36
2023/01/08 05:51:17;;;;;;;4.90;3.60;;;;;;;9.44;57.34;98756.59;10359297;28;20859;-36
2023/01/08 05:56:18;;;;;;;3.47;2.87;;;;;;;7.17;60.54;98643.22;10359406;28;20309;-36
2023/01/08 06:01:20;;;;;;;5.40;3.80;;;;;;;9.55;56.43;98736.47;10360475;28;20707;-36
2023/01/08 06:06:22;;;;;;;8.43;3.20;;;;;;;8.09;59.94;98751.59;10359636;28;20300;-36
2023/01/08 06:11:24;;;;;;;4.60;3.53;;;;;;;8.52;58.26;98781.81;10357969;28;20239;-36
2023/01/08 06:16:26;;;;;;;4.10;3.70;;;;;;;9.05;57.62;98755.44;10359755;28;20241;-36
2023/01/08 06:21:27;;;;;;;4.90;3.43;;;;;;;9.34;57.18;98761.50;10354766;28;20237;-36
2023/01/08 06:26:29;;;;;;;4.37;3.43;;;;;;;8.38;59.64;98784.38;10359341;28;20242;-35
2023/01/08 06:31:31;;;;;;;4.87;3.40;;;;;;;8.72;58.12;98812.09;10355171;28;20237;-36
2023/01/08 06:36:32;;;;;;;6.30;3.40;;;;;;;8.05;59.86;98779.63;10357926;28;20320;-36
2023/01/08 06:41:34;;;;;;;4.30;3.33;;;;;;;9.61;57.60;98724.16;10356868;28;20244;-36
2023/01/08 06:46:39;;;;;;;3.87;3.33;;;;;;;8.49;58.09;98817.69;10354877;28;20664;-36
2023/01/08 06:51:41;;;;;;;3.60;3.20;;;;;;;9.63;56.42;98765.66;10356879;28;20265;-35
2023/01/08 06:56:42;;;;;;;3.77;3.00;;;;;;;8.87;57.69;98837.88;10356973;28;20248;-37
2023/01/08 07:01:54;;;;;;;5.47;3.40;;;;;;;9.90;57.58;98725.66;10356624;28;20548;-35
2023/01/08 07:06:56;;;;;;;4.10;3.80;;;;;;;10.08;56.21;98773.94;10353545;28;20332;-35
2023/01/08 07:11:58;;;;;;;3.97;3.60;;;;;;;10.18;56.65;98770.06;10356603;28;20240;-37
2023/01/08 07:16:59;;;;;;;3.27;2.97;;;;;;;10.21;56.16;98766.94;10354791;28;20239;-37
2023/01/08 07:22:02;;;;;;;3.43;3.13;;;;;;;10.25;56.71;98747.63;10363746;28;20243;-37
2023/01/08 07:27:03;;;;;;;3.70;3.40;;;;;;;9.92;56.89;98817.97;10364085;28;20561;-35
2023/01/08 07:32:05;;;;;;;3.57;3.13;;;;;;;10.44;55.37;98761.16;10362442;28;20283;-35
2023/01/08 07:37:07;;;;;;;3.30;3.00;;;;;;;10.06;56.45;98768.00;10363437;28;20726;-36
2023/01/08 07:42:08;;;;;;;4.67;3.27;;;;;;;9.74;55.77;98850.56;10363576;28;20233;-36
2023/01/08 07:47:10;;;;;;;4.67;3.10;;;;;;;11.26;53.52;98807.88;10361715;28;20228;-36
2023/01/08 07:52:12;;;;;;;5.03;4.13;;;;;;;10.66;55.15;98817.91;10365079;28;20243;-35
2023/01/08 07:57:14;;;;;;;5.70;4.67;;;;;;;8.83;58.01;98888.91;10360346;28;20242;-35
2023/01/08 08:02:15;;;;;;;7.87;5.93;;;;;;;10.17;56.64;98835.25;10361699;28;20247;-36
2023/01/08 08:07:17;;;;;;;7.50;5.80;;;;;;;9.53;57.46;98888.09;10364529;28;20237;-35
2023/01/08 08:12:19;;;;;;;5.93;5.30;;;;;;;10.64;55.28;98810.09;10363180;28;20703;-35
2023/01/08 08:17:21;;;;;;;8.63;5.97;;;;;;;11.49;53.41;98838.72;10360459;28;20230;-36
2023/01/08 08:22:22;;;;;;;7.90;5.70;;;;;;;10.78;54.86;98827.00;10359804;28;20256;-37
2023/01/08 08:27:24;;;;;;;9.17;5.53;;;;;;;9.82;55.82;98899.47;10356955;28;20785;-36
2023/01/08 08:32:26;;;;;;;7.30;4.77;;;;;;;10.66;54.12;98813.41;10360882;28;20879;-37
2023/01/08 08:37:28;;;;;;;5.63;4.30;;;;;;;10.07;56.10;98879.25;10360552;28;20747;-35
2023/01/08 08:42:30;;;;;;;6.80;4.70;;;;;;;10.34;56.00;98844.50;10362568;28;20233;-35
2023/01/08 08:47:31;;;;;;;6.50;4.70;;;;;;;9.67;56.46;98876.44;10358735;28;20238;-37
2023/01/08 08:52:33;;;;;;;5.83;4.77;;;;;;;10.54;55.51;98849.84;10362707;28;20261;-36
2023/01/08 08:57:35;;;;;;;7.20;5.43;;;;;;;10.83;54.84;98829.03;10359858;28;20340;-36
2023/01/08 09:02:37;;;;;;;6.03;5.17;;;;;;;10.78;54.95;98831.50;10360691;28;20248;-37
2023/01/08 09:07:39;;;;;;;5.33;4.40;;;;;;;10.67;55.49;98835.63;10360174;28;20360;-36
2023/01/08 09:12:41;;;;;;;15.33;11.13;;;;;;;9.75;57.14;98899.47;10361821;28;20236;-35
2023/01/08 09:17:42;;;;;;;7.50;5.20;;;;;;;10.14;56.81;98889.91;10364807;28;20241;-36
2023/01/08 09:22:44;;;;;;;22.37;17.53;;;;;;;11.02;54.74;98871.00;10367691;28;20761;-38
2023/01/08 09:27:45;;;;;;;14.13;12.67;;;;;;;11.31;54.33;98868.03;10366016;28;20233;-35
2023/01/08 09:32:47;;;;;;;6.13;5.53;;;;;;;11.45;53.79;98872.31;10373401;28;20248;-35
2023/01/08 09:37:51;;;;;;;5.77;4.87;;;;;;;10.14;56.48;98924.69;10357095;28;20237;-36
2023/01/08 09:42:59;;;;;;;6.60;4.70;;;;;;;9.81;57.60;98922.72;10358849;28;20240;-35
2023/01/08 09:48:06;;;;;;;4.80;4.30;;;;;;;8.80;59.28;98902.63;10358087;28;20320;-37
2023/01/08 09:53:14;;;;;;;3.73;3.43;;;;;;;9.77;58.08;98908.94;10359598;28;20261;-36
2023/01/08 09:58:49;;;;;;;4.40;4.00;;;;;;;10.46;57.09;98818.78;10359020;28;20316;-36
2023/01/08 10:03:58;;;;;;;5.70;3.60;;;;;;;9.64;58.34;98854.66;10353747;28;20225;-37
2023/01/08 10:09:00;;;;;;;4.63;3.70;;;;;;;9.51;58.35;98866.09;10372839;28;20248;-36
2023/01/08 10:14:02;;;;;;;3.33;2.97;;;;;;;7.83;62.35;98807.25;10356610;28;20308;-35
2023/01/08 10:19:04;;;;;;;4.27;3.60;;;;;;;8.75;60.84;98905.06;10357919;28;20238;-35
2023/01/08 10:24:06;;;;;;;3.23;2.70;;;;;;;7.50;62.82;98758.00;10357252;28;20235;-35
2023/01/08 10:29:18;;;;;;;5.20;3.40;;;;;;;10.39;57.93;98747.59;10357823;28;20237;-36
2023/01/08 10:34:38;;;;;;;2.80;2.60;;;;;;;9.30;59.34;98824.31;10356322;28;20250;-37
2023/01/08 10:39:46;;;;;;;3.20;2.27;;;;;;;9.09;60.24;98860.78;10355460;28;20236;-37
2023/01/08 10:44:56;;;;;;;2.47;2.27;;;;;;;9.69;58.22;98762.19;10353888;28;20685;-36
2023/01/08 10:49:59;;;;;;;3.03;2.70;;;;;;;10.24;57.72;98739.81;10352976;28;20239;-36
2023/01/08 10:55:24;;;;;;;3.40;2.73;;;;;;;8.23;61.24;98835.13;10358300;28;20229;-37
2023/01/08 11:06:28;;;;;;;5.80;3.63;;;;;;;8.54;62.62;98771.78;10579261;27;20366;-68
2023/01/08 11:11:35;;;;;;;2.87;2.67;;;;;;;9.44;59.93;98729.88;10496205;28;20232;-68
2023/01/08 11:16:39;;;;;;;2.80;2.60;;;;;;;8.32;62.20;98816.31;10470575;28;20239;-67
2023/01/08 11:21:41;;;;;;;2.87;2.67;;;;;;;8.92;60.84;98731.38;10501589;28;20230;-67
2023/01/08 11:26:50;;;;;;;2.47;2.27;;;;;;;9.67;59.81;98713.50;10504901;28;20245;-66
2023/01/08 11:32:14;;;;;;;3.63;3.33;;;;;;;8.57;59.71;98784.72;10502009;28;20723;-63
2023/01/08 11:37:19;;;;;;;3.23;2.80;;;;;;;8.28;60.49;98778.56;10503336;28;20675;-63
2023/01/08 11:42:46;;;;;;;2.70;2.50;;;;;;;9.69;58.54;98721.31;10511267;28;20245;-64
2023/01/08 11:48:19;;;;;;;2.50;2.30;;;;;;;8.21;60.94;98786.53;10510660;28;20750;-63
2023/01/08 11:53:50;;;;;;;2.90;2.50;;;;;;;10.11;57.92;98719.28;10481049;28;20708;-63
2023/01/08 11:59:02;;;;;;;2.50;2.30;;;;;;;9.18;58.75;98733.31;10438407;28;20227;-62
2023/01/08 12:04:15;;;;;;;2.10;1.90;;;;;;;10.12;57.31;98720.91;10466283;28;20230;-61
2023/01/08 12:09:39;;;;;;;3.07;2.77;;;;;;;9.42;57.27;98761.31;10457826;28;20244;-64
2023/01/08 12:14:47;;;;;;;2.20;2.00;;;;;;;10.61;56.15;98767.72;10451036;28;20592;-61
2023/01/08 12:20:16;;;;;;;2.20;2.10;;;;;;;9.97;56.95;98747.84;10475152;28;20231;-64
2023/01/08 12:25:36;;;;;;;2.10;1.97;;;;;;;9.99;56.60;98742.28;10477231;28;20744;-60
2023/01/08 12:30:51;;;;;;;1.90;1.80;;;;;;;8.65;58.26;98777.38;10469475;28;20243;-62
2023/01/08 12:35:57;;;;;;;1.50;1.50;;;;;;;9.13;59.13;98773.13;10435158;28;20228;-61
2023/01/08 12:41:12;;;;;;;2.30;2.10;;;;;;;8.54;59.56;98799.28;10435957;28;20239;-64
2023/01/08 12:46:15;;;;;;;2.30;2.20;;;;;;;9.99;57.29;98716.41;10437569;28;20237;-64
2023/01/08 12:51:29;;;;;;;1.93;1.83;;;;;;;9.32;57.50;98739.53;10419582;28;20822;-61
2023/01/08 12:56:43;;;;;;;1.83;1.73;;;;;;;9.03;58.16;98770.84;10423446;28;20802;-61
2023/01/08 13:02:06;;;;;;;2.30;2.20;;;;;;;10.56;55.04;98772.88;10420571;28;20727;-63
2023/01/08 13:07:19;;;;;;;3.63;2.67;;;;;;;8.70;57.27;98757.31;10446119;28;20255;-61
2023/01/08 13:12:31;;;;;;;1.63;1.57;;;;;;;9.05;57.78;98792.00;10474891;28;20233;-63
2023/01/08 13:17:33;;;;;;;2.00;1.90;;;;;;;11.36;53.61;98753.06;10476315;28;20240;-60
2023/01/08 13:22:36;;;;;;;2.10;2.00;;;;;;;10.34;55.59;98724.16;10452966;28;20258;-63
2023/01/08 13:27:38;;;;;;;2.17;1.97;;;;;;;9.35;56.88;98753.28;10451887;28;20236;-61
2023/01/08 13:32:47;;;;;;;2.30;2.20;;;;;;;10.09;55.55;98740.88;10480022;28;20415;-63
2023/01/08 13:37:51;;;;;;;2.13;2.03;;;;;;;11.25;53.29;98747.34;10522279;28;20741;-60
2023/01/08 13:42:57;;;;;;;2.97;2.67;;;;;;;10.06;55.72;98714.53;10523613;28;20707;-64
2023/01/08 13:48:00;;;;;;;2.70;2.47;;;;;;;9.26;56.86;98726.97;10526620;28;20238;-62
2023/01/08 13:53:03;;;;;;;2.63;2.43;;;;;;;10.03;55.39;98700.78;10525097;28;20241;-63
2023/01/08 13:58:17;;;;;;;2.23;2.13;;;;;;;11.10;53.50;98706.63;10518126;28;20233;-63
2023/01/08 14:03:25;;;;;;;4.60;2.50;;;;;;;11.70;52.84;98705.47;10530664;28;20437;-64
2023/01/08 14:08:26;;;;;;;2.17;2.07;;;;;;;11.63;53.61;98687.56;10518947;28;21201;-63
2023/01/08 14:13:33;;;;;;;2.33;2.10;;;;;;;10.46;54.53;98660.16;10515845;28;20272;-63
2023/01/08 14:18:34;;;;;;;2.43;2.23;;;;;;;11.25;53.19;98672.38;10525448;28;20230;-63
2023/01/08 14:23:41;;;;;;;2.27;2.10;;;;;;;11.79;52.07;98710.34;10520796;28;20231;-64
2023/01/08 14:28:50;;;;;;;2.83;2.63;;;;;;;11.09;53.28;98647.97;10518369;28;20234;-64
2023/01/08 14:33:54;;;;;;;2.10;2.00;;;;;;;11.34;54.30;98640.78;10525132;28;20729;-63
2023/01/08 14:38:56;;;;;;;2.00;1.90;;;;;;;9.75;56.05;98689.25;10518323;28;20322;-62
2023/01/08 14:43:58;;;;;;;2.40;2.20;;;;;;;11.42;52.85;98645.88;10523175;28;20230;-62
2023/01/08 14:48:59;;;;;;;1.80;1.70;;;;;;;10.55;55.02;98666.09;10527441;28;20239;-63
2023/01/08 14:54:04;;;;;;;1.90;1.80;;;;;;;10.19;54.69;98670.94;10519427;28;20237;-66
2023/01/08 14:59:09;;;;;;;2.50;2.30;;;;;;;11.56;53.07;98614.44;10523292;28;20284;-64
2023/01/08 15:04:21;;;;;;;2.57;2.40;;;;;;;11.41;52.78;98606.72;10525383;28;20319;-64
2023/01/08 15:09:30;;;;;;;2.37;2.17;;;;;;;9.88;55.93;98648.34;10520991;28;20234;-62
2023/01/08 15:14:35;;;;;;;2.60;2.40;;;;;;;12.49;51.63;98618.06;10522187;28;20249;-63
2023/01/08 15:19:48;;;;;;;2.23;2.13;;;;;;;11.05;52.53;98597.53;10524954;28;20234;-65
2023/01/08 15:24:58;;;;;;;2.00;1.90;;;;;;;10.73;53.86;98607.38;10514821;28;20223;-63
2023/01/08 15:30:02;;;;;;;2.30;2.20;;;;;;;10.17;54.76;98592.78;10524629;28;20288;-64
2023/01/08 15:35:17;;;;;;;2.50;2.40;;;;;;;11.77;52.32;98556.16;10519944;28;20784;-65
2023/01/08 15:40:19;;;;;;;2.70;2.50;;;;;;;9.99;54.66;98582.78;10499211;28;20229;-63
2023/01/08 15:45:27;;;;;;;2.80;2.60;;;;;;;10.55;53.34;98554.56;10516768;28;20233;-63
2023/01/08 15:50:31;;;;;;;2.20;2.10;;;;;;;10.90;52.68;98535.47;10517094;28;20392;-66
2023/01/08 15:55:33;;;;;;;2.30;2.20;;;;;;;10.39;54.41;98563.91;10514008;28;20233;-65
2023/01/08 16:00:38;;;;;;;2.57;2.37;;;;;;;11.13;53.10;98521.47;10528810;28;20243;-64
2023/01/08 16:05:41;;;;;;;1.90;1.80;;;;;;;11.13;53.57;98517.97;10528223;28;20239;-61
2023/01/08 16:10:43;;;;;;;1.83;1.73;;;;;;;9.80;54.98;98573.72;10523708;28;20696;-61
2023/01/08 16:15:48;;;;;;;4.10;2.30;;;;;;;10.61;53.47;98521.59;10520494;28;20234;-63
2023/01/08 16:20:57;;;;;;;1.90;1.80;;;;;;;10.57;54.57;98538.31;10516114;28;20238;-63
2023/01/08 16:26:03;;;;;;;2.23;2.13;;;;;;;12.04;50.89;98512.97;10526317;22;20237;-34
2023/01/08 16:31:06;;;;;;;3.67;2.00;;;;;;;11.88;51.10;98506.31;10518853;28;20310;-38
2023/01/08 16:36:08;;;;;;;2.70;2.50;;;;;;;10.76;53.63;98525.88;10521535;28;20621;-37
2023/01/08 16:41:10;;;;;;;4.30;2.80;;;;;;;11.33;52.15;98464.25;10552204;27;20233;-37
2023/01/08 16:46:13;;;;;;;2.50;2.30;;;;;;;10.67;53.37;98488.63;10563248;27;20242;-38
2023/01/08 16:51:19;;;;;;;32.00;18.83;;;;;;;11.26;51.79;98437.53;10556424;27;20319;-38
2023/01/08 16:56:21;;;;;;;3.57;3.27;;;;;;;12.08;51.56;98464.03;10562451;27;20226;-38
2023/01/08 17:01:23;;;;;;;2.87;2.20;;;;;;;11.18;51.56;98437.81;10559290;27;20236;-38
2023/01/08 17:06:25;;;;;;;9.93;5.70;;;;;;;10.67;52.75;98445.03;10556106;27;20775;-38
2023/01/08 17:11:27;;;;;;;6.13;4.27;;;;;;;10.80;52.19;98407.50;10554185;27;20322;-38
2023/01/08 17:16:29;;;;;;;4.07;3.77;;;;;;;11.91;51.38;98428.16;10562437;27;20737;-37
2023/01/08 17:21:32;;;;;;;3.50;3.20;;;;;;;11.53;50.64;98421.19;10558729;27;20260;-38
2023/01/08 17:26:34;;;;;;;4.37;3.27;;;;;;;12.98;49.36;98459.59;10552262;27;20582;-35
2023/01/08 17:31:38;;;;;;;5.83;4.03;;;;;;;12.63;49.33;98424.69;10558409;27;20221;-38
2023/01/08 17:36:41;;;;;;;9.87;8.50;;;;;;;12.91;48.05;98427.50;10540594;28;20241;-37
2023/01/08 17:47:03;;;;;;;4.43;4.03;;;;;;;14.45;46.17;98440.59;10558038;27;20230;-37
2023/01/08 17:52:05;;;;;;;2.00;1.90;;;;;;;12.45;48.32;98328.94;10556920;27;20596;-35
2023/01/08 17:57:07;;;;;;;5.63;4.90;;;;;;;13.96;46.96;98325.41;10554845;28;20234;-37
2023/01/08 18:02:12;;;;;;;5.07;4.57;;;;;;;14.14;45.05;98323.59;10569655;27;20234;-37
2023/01/08 18:07:17;;;;;;;4.60;4.20;;;;;;;12.50;48.02;98311.16;10565331;27;20233;-37
2023/01/08 18:12:19;;;;;;;5.90;5.27;;;;;;;13.56;46.75;98298.59;10551017;28;20234;-37
2023/01/08 18:17:20;;;;;;;16.90;15.17;;;;;;;13.66;46.05;98299.59;10550447;27;20262;-37
2023/01/08 18:22:22;;;;;;;12.10;10.00;;;;;;;13.78;45.52;98286.09;10566915;27;20244;-35
2023/01/08 18:27:24;;;;;;;11.80;9.00;;;;;;;14.02;45.99;98289.47;10549478;27;20238;-37
2023/01/08 18:32:26;;;;;;;8.67;6.67;;;;;;;12.24;47.64;98274.84;10564496;27;20316;-35
2023/01/08 18:37:28;;;;;;;8.00;5.17;;;;;;;15.01;44.30;98291.78;10563835;27;20230;-35
2023/01/08 18:42:31;;;;;;;3.70;3.40;;;;;;;12.37;47.82;98292.56;10553116;28;20242;-37
2023/01/08 18:47:33;;;;;;;10.63;8.97;;;;;;;13.78;45.97;98221.56;10557831;27;20738;-37
2023/01/08 18:52:35;;;;;;;10.70;9.43;;;;;;;15.88;42.74;98282.78;10561719;27;20260;-37
2023/01/08 18:57:38;;;;;;;8.47;7.33;;;;;;;13.48;45.32;98216.50;10556240;28;20230;-35
2023/01/08 19:02:40;;;;;;;16.70;14.60;;;;;;;13.41;45.97;98243.53;10551418;28;20286;-37
2023/01/08 19:07:42;;;;;;;6.47;5.07;;;;;;;13.83;46.13;98226.22;10560011;28;20241;-37
2023/01/08 19:12:43;;;;;;;4.57;4.13;;;;;;;12.96;47.10;98251.47;10548472;28;20254;-37
2023/01/08 19:17:45;;;;;;;5.73;5.03;;;;;;;15.06;44.01;98198.34;10559686;28;20238;-37
2023/01/08 19:22:47;;;;;;;6.73;4.97;;;;;;;15.60;42.87;98202.97;10557589;28;20245;-35
2023/01/08 19:27:49;;;;;;;8.37;6.17;;;;;;;15.27;43.88;98169.75;10565520;27;20805;-37
2023/01/08 19:32:50;;;;;;;5.87;4.87;;;;;;;14.52;44.22;98129.03;10560952;27;20734;-37
2023/01/08 19:37:52;;;;;;;6.20;4.97;;;;;;;12.84;47.71;98181.69;10567842;27;20234;-35
2023/01/08 19:48:15;;;;;;;8.57;7.70;;;;;;;15.10;44.76;98102.53;10562493;27;20240;-36
2023/01/08 19:53:16;;;;;;;8.87;7.83;;;;;;;16.06;42.89;98108.09;10564301;27;20456;-35
2023/01/08 19:58:19;;;;;;;7.77;5.83;;;;;;;15.58;43.66;98091.06;10559744;28;20252;-35
2023/01/08 20:03:25;;;;;;;6.33;5.73;;;;;;;14.77;44.46;98057.72;10568542;27;20233;-36
2023/01/08 20:08:26;;;;;;;18.63;13.00;;;;;;;12.06;49.25;98114.88;10561713;28;20245;-37
2023/01/08 20:13:30;;;;;;;22.03;16.57;;;;;;;12.93;48.36;98130.06;10571040;27;20226;-35
2023/01/08 20:18:32;;;;;;;23.33;15.90;;;;;;;14.35;46.63;98032.25;10571270;27;20242;-36
2023/01/08 20:23:35;;;;;;;41.67;33.57;;;;;;;12.40;49.16;98131.16;10567317;27;20226;-35
2023/01/08 20:28:38;;;;;;;18.43;15.50;;;;;;;15.03;45.39;97998.72;10568728;27;20723;-36
2023/01/08 20:33:41;;;;;;;12.67;10.40;;;;;;;14.06;46.09;98020.06;10566319;27;20246;-44
2023/01/08 20:38:43;;;;;;;16.43;12.93;;;;;;;12.00;49.74;98086.34;10552435;27;20244;-36
2023/01/08 20:43:45;;;;;;;7.03;6.13;;;;;;;10.84;53.10;98084.09;10555081;28;20244;-36
2023/01/08 20:48:47;;;;;;;4.77;4.27;;;;;;;9.54;57.23;98038.66;10545185;27;20225;-37
2023/01/08 20:53:49;;;;;;;6.60;4.87;;;;;;;9.85;56.22;98089.56;10554176;27;20233;-36
2023/01/08 20:58:51;;;;;;;4.87;4.33;;;;;;;9.65;56.21;98063.84;10552926;27;20606;-36
2023/01/08 21:03:54;;;;;;;5.20;4.70;;;;;;;11.99;53.30;97937.28;10551291;27;20741;-36
2023/01/08 21:08:58;;;;;;;6.47;4.70;;;;;;;12.24;51.67;97941.50;10552919;27;20717;-37
2023/01/08 21:14:00;;;;;;;6.07;5.47;;;;;;;10.57;54.83;98049.63;10565796;27;20244;-36
2023/01/08 21:19:02;;;;;;;4.30;3.87;;;;;;;9.68;57.22;98026.00;10568243;27;20244;-37
2023/01/08 21:24:07;;;;;;;5.37;4.13;;;;;;;9.73;58.07;98012.78;10561225;27;20302;-36
2023/01/08 21:29:10;;;;;;;6.83;4.80;;;;;;;10.33;56.56;98014.78;10549873;28;20230;-36
2023/01/08 21:34:12;;;;;;;6.07;4.87;;;;;;;10.70;55.63;97925.59;10554994;27;20317;-36
2023/01/08 21:39:14;;;;;;;7.60;5.10;;;;;;;10.62;56.77;97924.06;10555039;27;20222;-36
2023/01/08 21:49:39;;;;;;;7.10;5.80;;;;;;;10.18;57.08;98000.19;10555268;27;20241;-35
2023/01/08 21:54:41;;;;;;;6.10;4.73;;;;;;;11.61;54.58;97861.75;10555603;27;20233;-35
2023/01/08 21:59:43;;;;;;;5.77;5.17;;;;;;;9.52;57.52;97954.50;10560646;27;20272;-36
2023/01/08 22:04:45;;;;;;;5.37;4.87;;;;;;;10.10;57.53;97954.00;10567068;27;20578;-35
2023/01/08 22:09:47;;;;;;;5.17;4.23;;;;;;;10.47;56.32;97937.06;10557946;27;20490;-37
2023/01/08 22:14:54;;;;;;;5.97;4.60;;;;;;;11.22;55.54;97860.69;10558352;27;20237;-36
2023/01/08 22:19:56;;;;;;;5.67;4.87;;;;;;;10.68;56.04;97925.81;10557270;27;20238;-35
2023/01/08 22:24:58;;;;;;;4.80;4.27;;;;;;;10.59;56.82;97921.84;10557243;27;20249;-36
2023/01/08 22:30:00;;;;;;;4.90;4.00;;;;;;;9.41;57.68;97942.69;10552315;28;20960;-36
2023/01/08 22:35:01;;;;;;;3.20;2.90;;;;;;;9.37;57.64;97936.97;10566902;27;20248;-36
2023/01/08 22:40:04;;;;;;;3.37;2.67;;;;;;;9.90;58.09;97953.44;10567781;27;20233;-37
2023/01/08 22:45:06;;;;;;;3.00;2.70;;;;;;;10.46;55.62;97925.56;10551108;27;20230;-37
2023/01/08 22:50:09;;;;;;;3.07;2.63;;;;;;;10.57;56.13;97899.06;10551594;28;20609;-35
2023/01/08 22:55:10;;;;;;;2.63;2.43;;;;;;;10.40;56.10;97933.69;10554663;27;20574;-36
2023/01/08 23:00:13;;;;;;;2.10;2.00;;;;;;;9.28;58.92;97948.16;10537957;27;20234;-36
2023/01/08 23:05:15;;;;;;;2.50;2.30;;;;;;;9.29;58.40;97961.28;10541250;28;20233;-37
2023/01/08 23:10:16;;;;;;;2.07;1.97;;;;;;;9.14;58.81;97928.78;10553875;28;20244;-37
2023/01/08 23:15:19;;;;;;;2.30;2.10;;;;;;;11.63;54.89;97845.47;10546604;28;20245;-37
2023/01/08 23:20:23;;;;;;;2.77;1.97;;;;;;;11.18;55.52;97856.84;10563062;28;20238;-37
2023/01/08 23:25:26;;;;;;;3.23;2.17;;;;;;;10.36;57.15;97951.19;10540721;28;20573;-36
2023/01/08 23:30:30;;;;;;;2.30;2.20;;;;;;;10.49;57.48;97901.00;10557987;28;20230;-36
2023/01/08 23:35:32;;;;;;;2.90;2.70;;;;;;;10.51;56.11;97888.25;10552091;28;20241;-36
2023/01/08 23:40:33;;;;;;;1.90;1.77;;;;;;;9.26;58.38;97942.22;10549772;28;20240;-37
2023/01/08 23:45:36;;;;;;;2.30;2.20;;;;;;;9.06;59.54;97943.22;10542412;28;20230;-36
2023/01/08 23:50:38;;;;;;;2.00;1.90;;;;;;;9.12;60.31;97939.69;10543957;28;20272;-37
2023/01/08 23:55:40;;;;;;;2.00;1.90;;;;;;;8.81;61.16;97949.38;10560796;28;20223;-36
